Time,TemperatureF,DewpointF,PressureIn,WindDirection,WindDirectionDegrees,WindSpeedMPH,WindSpeedGustMPH,Humidity,HourlyPrecipIn,Conditions,Clouds,dailyrainin,SolarRadiationWatts/m^2,SoftwareType,DateUTC
2013-01-12 00:13:00,42.8,42.0,30.20,East,82,5.0,8.0,98,0.00,,,0.28,0,weatherlink.com 1.10,2013-01-12 05:13:00,
2013-01-12 00:28:00,42.9,42.0,30.20,SE,133,3.0,7.0,98,0.00,,,0.28,0,weatherlink.com 1.10,2013-01-12 05:28:00,
2013-01-12 00:43:00,42.9,42.0,30.20,ESE,105,0.0,5.0,98,0.00,,,0.28,0,weatherlink.com 1.10,2013-01-12 05:43:00,
2013-01-12 00:58:00,42.3,42.0,30.20,ENE,68,0.0,3.0,98,0.00,,,0.28,0,weatherlink.com 1.10,2013-01-12 05:58:00,
2013-01-12 01:13:00,42.0,41.0,30.20,NE,46,0.0,2.0,97,0.00,,,0.28,0,weatherlink.com 1.10,2013-01-12 06:13:00,
2013-01-12 01:28:00,42.0,41.0,30.20,East,98,2.0,5.0,97,0.00,,,0.28,0,weatherlink.com 1.10,2013-01-12 06:28:00,
2013-01-12 01:43:00,42.6,42.0,30.20,East,82,3.0,7.0,98,0.01,,,0.29,0,weatherlink.com 1.10,2013-01-12 06:43:00,
2013-01-12 01:58:00,42.9,42.0,30.20,SE,133,1.0,3.0,98,0.01,,,0.29,0,weatherlink.com 1.10,2013-01-12 06:58:00,
2013-01-12 02:13:00,42.8,42.0,30.19,East,80,1.0,5.0,98,0.02,,,0.30,0,weatherlink.com 1.10,2013-01-12 07:13:00,
2013-01-12 02:28:00,42.6,42.0,30.19,NW,315,0.0,5.0,98,0.02,,,0.30,0,weatherlink.com 1.10,2013-01-12 07:28:00,
2013-01-12 02:43:00,42.8,42.0,30.17,ESE,109,4.0,8.0,98,0.01,,,0.30,0,weatherlink.com 1.10,2013-01-12 07:43:00,
2013-01-12 02:58:00,43.1,43.0,30.17,NNE,28,1.0,8.0,98,0.02,,,0.31,0,weatherlink.com 1.10,2013-01-12 07:58:00,
2013-01-12 03:13:00,42.6,42.0,30.16,NE,55,1.0,5.0,98,0.01,,,0.31,0,weatherlink.com 1.10,2013-01-12 08:13:00,
2013-01-12 03:28:00,42.4,42.0,30.16,East,101,3.0,6.0,98,0.01,,,0.31,0,weatherlink.com 1.10,2013-01-12 08:28:00,
2013-01-12 03:43:00,42.0,42.0,30.16,SE,133,0.0,4.0,98,0.01,,,0.31,0,weatherlink.com 1.10,2013-01-12 08:43:00,
2013-01-12 03:58:00,41.7,41.0,30.16,East,84,0.0,2.0,98,0.01,,,0.32,0,weatherlink.com 1.10,2013-01-12 08:58:00,
2013-01-12 04:13:00,41.7,41.0,30.16,ESE,109,0.0,3.0,98,0.01,,,0.32,0,weatherlink.com 1.10,2013-01-12 09:13:00,
2013-01-12 04:28:00,41.8,41.0,30.15,East,79,2.0,5.0,98,0.01,,,0.32,0,weatherlink.com 1.10,2013-01-12 09:28:00,
2013-01-12 04:43:00,41.7,41.0,30.16,ENE,78,0.0,4.0,98,0.02,,,0.33,0,weatherlink.com 1.10,2013-01-12 09:43:00,
2013-01-12 04:58:00,41.2,41.0,30.16,NE,50,0.0,3.0,98,0.01,,,0.33,0,weatherlink.com 1.10,2013-01-12 09:58:00,
2013-01-12 05:13:00,40.8,40.0,30.17,NE,52,0.0,3.0,98,0.02,,,0.34,0,weatherlink.com 1.10,2013-01-12 10:13:00,
2013-01-12 05:28:00,40.5,40.0,30.15,NE,35,0.0,4.0,98,0.02,,,0.34,0,weatherlink.com 1.10,2013-01-12 10:28:00,
2013-01-12 05:43:00,40.4,40.0,30.15,East,94,0.0,3.0,98,0.01,,,0.34,0,weatherlink.com 1.10,2013-01-12 10:43:00,
2013-01-12 05:58:00,40.6,40.0,30.13,East,92,0.0,4.0,98,0.01,,,0.34,0,weatherlink.com 1.10,2013-01-12 10:58:00,
2013-01-12 06:13:00,40.7,40.0,30.16,NE,42,0.0,3.0,98,0.01,,,0.35,0,weatherlink.com 1.10,2013-01-12 11:13:00,
2013-01-12 06:28:00,40.6,40.0,30.16,NE,55,0.0,4.0,98,0.01,,,0.35,0,weatherlink.com 1.10,2013-01-12 11:28:00,
2013-01-12 06:43:00,40.1,40.0,30.16,East,98,0.0,3.0,98,0.01,,,0.35,0,weatherlink.com 1.10,2013-01-12 11:43:00,
2013-01-12 06:58:00,40.0,40.0,30.18,East,98,0.0,1.0,98,0.01,,,0.35,0,weatherlink.com 1.10,2013-01-12 11:58:00,
2013-01-12 07:13:00,40.0,40.0,30.18,East,98,0.0,0.0,98,0.00,,,0.35,0,weatherlink.com 1.10,2013-01-12 12:13:00,
2013-01-12 07:28:00,40.0,40.0,30.19,East,98,0.0,1.0,98,0.00,,,0.35,0,weatherlink.com 1.10,2013-01-12 12:28:00,
2013-01-12 07:43:00,40.0,40.0,30.20,NNE,33,0.0,2.0,98,0.00,,,0.35,5,weatherlink.com 1.10,2013-01-12 12:43:00,
2013-01-12 07:58:00,40.1,40.0,30.20,NNE,33,0.0,0.0,98,0.00,,,0.35,9,weatherlink.com 1.10,2013-01-12 12:58:00,
2013-01-12 08:14:00,40.2,40.0,30.20,NNW,337,0.0,2.0,98,0.01,,,0.36,16,weatherlink.com 1.10,2013-01-12 13:14:00,
2013-01-12 08:28:00,40.3,40.0,30.20,NNW,337,0.0,1.0,98,0.01,,,0.36,25,weatherlink.com 1.10,2013-01-12 13:28:00,
2013-01-12 08:43:00,40.6,40.0,30.20,NE,36,0.0,2.0,98,0.01,,,0.36,23,weatherlink.com 1.10,2013-01-12 13:43:00,
2013-01-12 08:58:00,40.6,40.0,30.19,NE,36,0.0,1.0,98,0.01,,,0.36,16,weatherlink.com 1.10,2013-01-12 13:58:00,
2013-01-12 09:13:00,40.8,40.0,30.20,NE,35,0.0,1.0,98,0.00,,,0.36,44,weatherlink.com 1.10,2013-01-12 14:13:00,
2013-01-12 09:28:00,41.3,41.0,30.20,SE,128,0.0,2.0,98,0.00,,,0.36,88,weatherlink.com 1.10,2013-01-12 14:28:00,
2013-01-12 09:44:00,42.6,42.0,30.20,NNW,329,1.0,3.0,98,0.00,,,0.36,151,weatherlink.com 1.10,2013-01-12 14:44:00,
2013-01-12 09:59:00,43.4,43.0,30.20,NNW,342,0.0,3.0,98,0.00,,,0.36,91,weatherlink.com 1.10,2013-01-12 14:59:00,
2013-01-12 10:14:00,43.4,43.0,30.21,NNW,346,0.0,2.0,98,0.00,,,0.36,60,weatherlink.com 1.10,2013-01-12 15:14:00,
2013-01-12 10:29:00,43.5,43.0,30.20,NNE,28,0.0,2.0,98,0.00,,,0.00,86,weatherlink.com 1.10,2013-01-12 15:29:00,
2013-01-12 10:44:00,43.4,43.0,30.19,West,263,0.0,2.0,98,0.00,,,0.00,56,weatherlink.com 1.10,2013-01-12 15:44:00,
2013-01-12 10:59:00,43.3,43.0,30.18,WNW,293,0.0,2.0,98,0.00,,,0.00,58,weatherlink.com 1.10,2013-01-12 15:59:00,
2013-01-12 11:14:00,43.5,43.0,30.18,NNE,12,0.0,3.0,98,0.00,,,0.00,81,weatherlink.com 1.10,2013-01-12 16:14:00,
2013-01-12 11:29:00,43.9,43.0,30.17,NNE,16,0.0,1.0,98,0.00,,,0.00,72,weatherlink.com 1.10,2013-01-12 16:29:00,
2013-01-12 11:44:00,44.1,44.0,30.17,NNE,16,0.0,1.0,98,0.00,,,0.00,69,weatherlink.com 1.10,2013-01-12 16:44:00,
2013-01-12 11:59:00,44.2,44.0,30.16,NNE,29,0.0,3.0,98,0.00,,,0.00,81,weatherlink.com 1.10,2013-01-12 16:59:00,
2013-01-12 12:14:00,44.2,44.0,30.16,NE,49,0.0,2.0,98,0.00,,,0.00,67,weatherlink.com 1.10,2013-01-12 17:14:00,
2013-01-12 12:29:00,44.6,44.0,30.15,ENE,78,0.0,3.0,98,0.00,,,0.00,65,weatherlink.com 1.10,2013-01-12 17:29:00,
2013-01-12 12:44:00,44.9,44.0,30.17,NNE,19,1.0,2.0,98,0.00,,,0.00,62,weatherlink.com 1.10,2013-01-12 17:44:00,
2013-01-12 12:59:00,45.3,45.0,30.16,NE,48,1.0,2.0,98,0.00,,,0.00,79,weatherlink.com 1.10,2013-01-12 17:59:00,
2013-01-12 13:14:00,45.4,45.0,30.17,ESE,103,0.0,2.0,98,0.00,,,0.00,86,weatherlink.com 1.10,2013-01-12 18:14:00,
2013-01-12 13:29:00,45.9,45.0,30.17,ESE,103,0.0,0.0,98,0.00,,,0.00,74,weatherlink.com 1.10,2013-01-12 18:29:00,
2013-01-12 13:44:00,45.6,45.0,30.17,ENE,67,1.0,2.0,98,0.00,,,0.00,70,weatherlink.com 1.10,2013-01-12 18:44:00,
2013-01-12 13:59:00,46.0,46.0,30.18,NE,40,0.0,1.0,98,0.00,,,0.00,40,weatherlink.com 1.10,2013-01-12 18:59:00,
2013-01-12 14:14:00,46.0,46.0,30.19,NE,40,0.0,0.0,98,0.00,,,0.00,58,weatherlink.com 1.10,2013-01-12 19:14:00,
2013-01-12 14:29:00,46.2,46.0,30.19,NE,40,0.0,0.0,98,0.00,,,0.00,33,weatherlink.com 1.10,2013-01-12 19:29:00,
2013-01-12 14:44:00,46.1,46.0,30.20,NE,40,0.0,0.0,98,0.00,,,0.00,42,weatherlink.com 1.10,2013-01-12 19:44:00,
2013-01-12 14:59:00,46.3,46.0,30.19,NE,40,0.0,0.0,98,0.00,,,0.00,33,weatherlink.com 1.10,2013-01-12 19:59:00,
2013-01-12 15:14:00,46.1,46.0,30.18,East,86,0.0,2.0,98,0.00,,,0.00,23,weatherlink.com 1.10,2013-01-12 20:14:00,
2013-01-12 15:29:00,46.1,46.0,30.18,East,80,0.0,2.0,98,0.00,,,0.00,19,weatherlink.com 1.10,2013-01-12 20:29:00,
2013-01-12 15:44:00,45.9,45.0,30.19,ESE,103,0.0,0.0,98,0.00,,,0.00,21,weatherlink.com 1.10,2013-01-12 20:44:00,
2013-01-12 15:59:00,45.8,45.0,30.19,ESE,103,0.0,0.0,98,0.00,,,0.00,11,weatherlink.com 1.10,2013-01-12 20:59:00,
2013-01-12 16:14:00,45.6,45.0,30.20,East,94,0.0,1.0,98,0.00,,,0.00,9,weatherlink.com 1.10,2013-01-12 21:14:00,
2013-01-12 16:29:00,45.5,45.0,30.20,East,94,0.0,0.0,98,0.00,,,0.00,0,weatherlink.com 1.10,2013-01-12 21:29:00,
2013-01-12 16:44:00,45.4,45.0,30.19,East,94,0.0,0.0,98,0.00,,,0.00,0,weatherlink.com 1.10,2013-01-12 21:44:00,
2013-01-12 16:59:00,45.2,45.0,30.19,East,94,0.0,0.0,98,0.00,,,0.00,0,weatherlink.com 1.10,2013-01-12 21:59:00,
2013-01-12 17:14:00,45.0,45.0,30.19,East,94,0.0,0.0,98,0.00,,,0.00,0,weatherlink.com 1.10,2013-01-12 22:14:00,
2013-01-12 17:29:00,44.8,44.0,30.20,East,94,0.0,0.0,98,0.01,,,0.01,0,weatherlink.com 1.10,2013-01-12 22:29:00,
2013-01-12 17:44:00,44.7,44.0,30.20,East,94,0.0,0.0,98,0.01,,,0.01,0,weatherlink.com 1.10,2013-01-12 22:44:00,
2013-01-12 17:59:00,44.6,44.0,30.20,East,94,0.0,0.0,98,0.01,,,0.01,0,weatherlink.com 1.10,2013-01-12 22:59:00,
2013-01-12 18:14:00,44.5,44.0,30.20,East,94,0.0,0.0,98,0.01,,,0.01,0,weatherlink.com 1.10,2013-01-12 23:14:00,
2013-01-12 18:29:00,44.5,44.0,30.21,East,94,0.0,0.0,98,0.00,,,0.01,0,weatherlink.com 1.10,2013-01-12 23:29:00,
2013-01-12 18:44:00,44.5,44.0,30.20,East,94,0.0,0.0,98,0.00,,,0.01,0,weatherlink.com 1.10,2013-01-12 23:44:00,
2013-01-12 18:59:00,44.5,44.0,30.20,East,94,0.0,0.0,98,0.00,,,0.01,0,weatherlink.com 1.10,2013-01-12 23:59:00,
2013-01-12 19:14:00,44.4,44.0,30.19,East,94,0.0,0.0,98,0.01,,,0.02,0,weatherlink.com 1.10,2013-01-13 00:14:00,
2013-01-12 19:29:00,44.3,44.0,30.18,East,94,0.0,0.0,98,0.01,,,0.02,0,weatherlink.com 1.10,2013-01-13 00:29:00,
2013-01-12 19:44:00,44.1,44.0,30.18,East,94,0.0,0.0,98,0.01,,,0.02,0,weatherlink.com 1.10,2013-01-13 00:44:00,
2013-01-12 19:59:00,44.1,44.0,30.18,East,94,0.0,0.0,98,0.01,,,0.02,0,weatherlink.com 1.10,2013-01-13 00:59:00,
2013-01-12 20:14:00,43.9,43.0,30.19,East,94,0.0,0.0,98,0.00,,,0.02,0,weatherlink.com 1.10,2013-01-13 01:14:00,
2013-01-12 20:29:00,43.8,43.0,30.19,East,94,0.0,0.0,98,0.00,,,0.02,0,weatherlink.com 1.10,2013-01-13 01:29:00,
2013-01-12 20:44:00,43.9,43.0,30.20,East,94,0.0,0.0,98,0.00,,,0.02,0,weatherlink.com 1.10,2013-01-13 01:44:00,
2013-01-12 20:59:00,44.0,44.0,30.20,East,94,0.0,0.0,98,0.00,,,0.02,0,weatherlink.com 1.10,2013-01-13 01:59:00,
2013-01-12 21:14:00,43.8,43.0,30.19,East,94,0.0,0.0,98,0.01,,,0.03,0,weatherlink.com 1.10,2013-01-13 02:14:00,
2013-01-12 21:29:00,43.8,43.0,30.18,East,94,0.0,0.0,98,0.01,,,0.03,0,weatherlink.com 1.10,2013-01-13 02:29:00,
2013-01-12 21:44:00,43.7,43.0,30.18,East,94,0.0,0.0,98,0.01,,,0.03,0,weatherlink.com 1.10,2013-01-13 02:44:00,
2013-01-12 21:59:00,43.7,43.0,30.18,East,94,0.0,0.0,98,0.01,,,0.03,0,weatherlink.com 1.10,2013-01-13 02:59:00,
2013-01-12 22:14:00,43.7,43.0,30.17,East,94,0.0,0.0,98,0.00,,,0.03,0,weatherlink.com 1.10,2013-01-13 03:14:00,
2013-01-12 22:29:00,43.5,43.0,30.18,East,94,0.0,0.0,98,0.00,,,0.03,0,weatherlink.com 1.10,2013-01-13 03:29:00,
2013-01-12 22:44:00,43.4,43.0,30.17,East,94,0.0,0.0,98,0.00,,,0.03,0,weatherlink.com 1.10,2013-01-13 03:44:00,
2013-01-12 22:59:00,43.5,43.0,30.18,East,94,0.0,0.0,98,0.00,,,0.03,0,weatherlink.com 1.10,2013-01-13 03:59:00,
2013-01-12 23:14:00,43.4,43.0,30.17,East,94,0.0,0.0,98,0.00,,,0.03,0,weatherlink.com 1.10,2013-01-13 04:14:00,
2013-01-12 23:29:00,43.4,43.0,30.17,East,94,0.0,0.0,98,0.01,,,0.04,0,weatherlink.com 1.10,2013-01-13 04:29:00,
2013-01-12 23:59:00,43.3,43.0,30.18,East,94,0.0,0.0,98,0.01,,,0.04,0,weatherlink.com 1.10,2013-01-13 04:59:00,